.
Local / CommonContents

Fort Wayne - NE Ind.
U N D E R   C O N S T R U C T I O N

Northern Indiana (IWX) Radar

Latest IWX NEXRAD
Base Reflectivity



Latest IWX NEXRAD
Base Velocity

Indiana-Ohio Visible Satellite

For infrared and water vapor imagery, see Great Lakes - Midwest.

Current Conditions

Recent report from the Fort Wayne International Airport

Nov 19, 2018 - 01:54 PM EST / 2018.11.19 1854 UTC


The skies are mostly cloudy. The temperature is 39.9 F (4.4 C) and the dew point is 34.0 F (1.1 C), giving a relative humidity of 79%. The barometric pressure is 30.01 in. Hg (1016 hPa). The wind is Calm, and the visibility is 10 mile(s).

KFWA 191854Z 00000KT 10SM BKN012 BKN017 04/01 A3001 RMK AO2 SLP168 T00440011
CoCoRaHS
IN-AL-39
A2 Web Hosting
Creative Commons License
GoDaddy
search engine by freefind advanced

loaded 2018-11-19 14:27:58 • last modified 2015-05-28 14:58:18
Privacy PolicyDisclaimer
• wx.awcolley.com is powered by PmWiki v.2002016 •
• all content (unless otherwise noted) © 2018 A W Colley